createdAt,value
2019-05-17T00:01:07.394Z,28.45
2019-05-17T00:03:37.058Z,29.80
2019-05-17T00:06:06.827Z,29.72
2019-05-17T00:08:38.279Z,29.32
2019-05-17T00:11:07.375Z,29.80
2019-05-17T00:13:38.755Z,31.07
2019-05-17T00:16:09.376Z,30.77
2019-05-17T00:18:38.748Z,30.05
2019-05-17T00:21:08.401Z,33.00
2019-05-17T00:23:37.790Z,34.53
2019-05-17T00:26:07.405Z,33.02
2019-05-17T00:28:38.076Z,34.63
2019-05-17T00:31:19.582Z,32.25
2019-05-17T00:33:49.039Z,29.55
2019-05-17T00:36:18.491Z,29.25
2019-05-17T00:38:51.329Z,31.00
2019-05-17T00:41:18.973Z,29.00
2019-05-17T00:43:48.345Z,30.08
2019-05-17T00:46:17.705Z,29.75
2019-05-17T00:48:47.092Z,34.08
2019-05-17T00:51:16.823Z,31.50
2019-05-17T00:53:46.863Z,33.38
2019-05-17T00:56:17.165Z,30.43
2019-05-17T00:58:47.805Z,31.48
2019-05-17T01:01:17.367Z,28.75
2019-05-17T01:03:47.686Z,28.32
2019-05-17T01:06:17.169Z,28.07
2019-05-17T01:08:59.407Z,28.00
2019-05-17T01:11:17.531Z,29.80
2019-05-17T01:13:46.914Z,31.12
2019-05-17T01:16:16.596Z,31.27
2019-05-17T01:18:47.006Z,30.90
2019-05-17T01:21:17.710Z,31.42
2019-05-17T01:26:18.956Z,34.70
2019-05-17T01:28:48.337Z,33.78
2019-05-17T01:31:17.711Z,33.15
2019-05-17T01:33:48.362Z,31.90
2019-05-17T01:36:17.751Z,34.75
2019-05-17T01:38:47.129Z,31.60
2019-05-17T01:41:17.335Z,32.67
2019-05-17T01:43:47.442Z,32.83
2019-05-17T01:46:17.299Z,30.97
2019-05-17T01:48:47.722Z,30.15
2019-05-17T01:51:17.129Z,30.27
2019-05-17T01:53:47.014Z,30.45
2019-05-17T01:56:17.042Z,30.80
2019-05-17T01:58:47.012Z,29.00
2019-05-17T02:01:16.963Z,29.40
2019-05-17T02:03:46.987Z,30.17
2019-05-17T02:06:16.811Z,29.25
2019-05-17T02:08:47.518Z,27.20
2019-05-17T02:11:18.558Z,27.35
2019-05-17T02:13:48.042Z,28.57
2019-05-17T02:16:17.416Z,27.98
2019-05-17T02:18:46.794Z,27.60
2019-05-17T02:21:16.868Z,26.02
2019-05-17T02:24:07.925Z,24.00
2019-05-17T02:26:37.611Z,25.70
2019-05-17T02:29:06.986Z,27.35
2019-05-17T02:31:36.369Z,26.17
2019-05-17T02:34:05.912Z,26.95
2019-05-17T02:36:35.290Z,26.20
2019-05-17T02:39:06.885Z,27.40
2019-05-17T02:44:04.867Z,24.63
2019-05-17T02:46:34.238Z,26.00
2019-05-17T02:49:03.630Z,26.95
2019-05-17T02:51:33.029Z,26.45
2019-05-17T02:54:04.252Z,28.27
2019-05-17T02:56:34.494Z,27.55
2019-05-17T02:59:04.004Z,27.87
2019-05-17T03:01:33.616Z,28.00
2019-05-17T03:04:03.771Z,28.07
2019-05-17T03:09:03.405Z,28.15
2019-05-17T03:11:33.545Z,25.43
2019-05-17T03:14:03.996Z,28.20
2019-05-17T03:16:34.071Z,27.10
2019-05-17T03:19:04.424Z,28.30
2019-05-17T03:21:34.077Z,29.87
2019-05-17T03:24:04.617Z,25.30
2019-05-17T03:26:34.027Z,28.77
2019-05-17T03:29:03.640Z,26.12
2019-05-17T03:31:41.515Z,32.33
2019-05-17T03:34:06.848Z,25.85
2019-05-17T03:36:36.713Z,29.27
2019-05-17T03:39:07.410Z,28.83
2019-05-17T03:41:36.864Z,29.65
2019-05-17T03:44:06.242Z,27.65
2019-05-17T03:46:35.632Z,28.65
2019-05-17T03:49:05.016Z,31.02
2019-05-17T03:51:34.379Z,30.92
2019-05-17T03:54:03.783Z,28.32
2019-05-17T03:56:33.209Z,31.07
2019-05-17T03:59:03.747Z,30.90
2019-05-17T04:01:33.503Z,30.12
2019-05-17T04:04:15.522Z,29.65
2019-05-17T04:06:44.899Z,29.05
2019-05-17T04:09:14.314Z,29.57
2019-05-17T04:11:43.656Z,29.60
2019-05-17T04:14:13.870Z,31.10
2019-05-17T04:16:44.819Z,39.08
2019-05-17T04:19:15.163Z,40.45
2019-05-17T04:21:44.551Z,39.58
2019-05-17T04:24:13.915Z,35.58
2019-05-17T04:26:44.086Z,38.08
2019-05-17T04:29:13.870Z,37.83
2019-05-17T04:31:43.920Z,38.25
2019-05-17T04:34:13.812Z,35.85
2019-05-17T04:36:43.540Z,36.80
2019-05-17T04:39:13.484Z,39.58
2019-05-17T04:41:55.358Z,39.85
2019-05-17T04:44:24.760Z,42.40
2019-05-17T04:46:54.150Z,43.08
2019-05-17T04:49:24.358Z,42.05
2019-05-17T04:54:22.841Z,39.78
2019-05-17T04:56:53.205Z,38.67
2019-05-17T04:59:24.363Z,42.15
2019-05-17T05:01:54.347Z,36.73
2019-05-17T05:04:24.332Z,41.20
2019-05-17T05:06:53.717Z,40.35
2019-05-17T05:09:23.253Z,39.42
2019-05-17T05:12:00.786Z,41.30
2019-05-17T05:14:23.694Z,45.75
2019-05-17T05:16:53.063Z,45.08
2019-05-17T05:19:22.489Z,46.30
2019-05-17T05:21:52.132Z,45.75
2019-05-17T05:24:22.264Z,44.88
2019-05-17T05:26:51.872Z,48.00
2019-05-17T05:29:21.639Z,46.35
2019-05-17T05:31:51.807Z,60.05
2019-05-17T05:34:21.668Z,57.60
2019-05-17T05:36:52.533Z,45.08
2019-05-17T05:39:22.839Z,39.25
2019-05-17T05:42:05.127Z,39.83
2019-05-17T05:44:23.394Z,40.38
2019-05-17T05:46:52.790Z,47.17
2019-05-17T05:49:22.252Z,46.95
2019-05-17T05:51:52.355Z,44.05
2019-05-17T05:54:22.950Z,42.95
2019-05-17T05:56:53.310Z,38.78
2019-05-17T05:59:22.693Z,42.78
2019-05-17T06:01:52.588Z,42.10
2019-05-17T06:04:23.262Z,39.60
2019-05-17T06:06:52.622Z,41.83
2019-05-17T06:09:22.395Z,43.55
2019-05-17T06:11:52.054Z,40.78
2019-05-17T06:14:21.670Z,38.23
2019-05-17T06:16:51.993Z,39.90
2019-05-17T06:21:52.118Z,40.30
2019-05-17T06:24:22.553Z,43.00
2019-05-17T06:26:52.530Z,41.23
2019-05-17T06:29:22.226Z,42.80
2019-05-17T06:31:51.938Z,43.52
2019-05-17T06:34:22.291Z,46.42
2019-05-17T06:36:52.822Z,49.60
2019-05-17T06:41:52.248Z,48.73
2019-05-17T06:44:21.822Z,47.98
2019-05-17T06:46:51.988Z,47.53
2019-05-17T06:49:22.464Z,49.45
2019-05-17T06:54:21.583Z,47.70
2019-05-17T06:56:52.502Z,49.63
2019-05-17T06:59:22.074Z,42.58
2019-05-17T07:01:51.832Z,49.42
2019-05-17T07:04:21.268Z,52.25
2019-05-17T07:07:10.850Z,46.55
2019-05-17T07:09:40.128Z,51.33
2019-05-17T07:12:10.479Z,52.25
2019-05-17T07:14:40.193Z,47.48
2019-05-17T07:17:09.909Z,49.40
2019-05-17T07:19:40.065Z,50.33
2019-05-17T07:22:09.738Z,52.95
2019-05-17T07:24:39.693Z,51.00
2019-05-17T07:27:09.986Z,38.95
2019-05-17T07:29:40.364Z,49.15
2019-05-17T07:32:10.003Z,43.17
2019-05-17T07:34:40.208Z,48.40
2019-05-17T07:37:10.544Z,47.55
2019-05-17T07:39:42.359Z,49.33
2019-05-17T07:42:12.019Z,49.75
2019-05-17T07:44:43.971Z,48.42
2019-05-17T07:47:12.421Z,46.80
2019-05-17T07:49:41.803Z,51.42
2019-05-17T07:52:11.171Z,46.18
2019-05-17T07:54:40.566Z,46.63
2019-05-17T07:57:10.418Z,33.30
2019-05-17T07:59:39.950Z,36.70
2019-05-17T08:02:10.591Z,37.60
2019-05-17T08:04:40.665Z,37.42
2019-05-17T08:07:10.979Z,36.30
2019-05-17T08:09:40.705Z,33.58
2019-05-17T08:12:11.108Z,31.97
2019-05-17T08:14:40.748Z,32.25
2019-05-17T08:17:10.262Z,36.77
2019-05-17T08:19:40.298Z,30.63
2019-05-17T08:22:10.928Z,28.38
2019-05-17T08:24:40.290Z,32.53
2019-05-17T08:27:10.419Z,32.42
2019-05-17T08:29:41.728Z,32.03
2019-05-17T08:32:11.122Z,29.65
2019-05-17T08:34:40.507Z,28.00
2019-05-17T08:37:09.960Z,29.25
2019-05-17T08:39:39.996Z,31.68
2019-05-17T08:42:09.876Z,28.30
2019-05-17T08:44:40.466Z,31.87
2019-05-17T08:47:10.221Z,33.20
2019-05-17T08:49:40.307Z,33.55
2019-05-17T08:52:09.985Z,32.90
2019-05-17T08:54:42.719Z,34.35
2019-05-17T08:57:10.386Z,36.23
2019-05-17T08:59:40.503Z,33.45
2019-05-17T09:02:11.129Z,34.53
2019-05-17T09:04:40.625Z,35.75
2019-05-17T09:07:10.209Z,34.83
2019-05-17T09:09:39.611Z,36.23
2019-05-17T09:12:11.086Z,35.65
2019-05-17T09:14:40.233Z,36.53
2019-05-17T09:17:10.276Z,35.70
2019-05-17T09:19:40.953Z,38.08
2019-05-17T09:22:10.603Z,35.10
2019-05-17T09:24:40.144Z,38.00
2019-05-17T09:27:10.127Z,37.20
2019-05-17T09:29:40.399Z,35.65
2019-05-17T09:32:09.933Z,37.70
2019-05-17T09:34:40.459Z,38.02
2019-05-17T09:37:10.071Z,35.40
2019-05-17T09:39:40.133Z,32.75
2019-05-17T09:42:10.367Z,38.35
2019-05-17T09:44:40.450Z,37.65
2019-05-17T09:47:10.200Z,31.93
2019-05-17T09:49:39.712Z,32.17
2019-05-17T09:52:09.613Z,31.42
2019-05-17T09:54:45.056Z,33.40
2019-05-17T09:57:11.193Z,31.35
2019-05-17T09:59:40.716Z,31.17
2019-05-17T10:02:10.116Z,33.05
2019-05-17T10:04:39.603Z,31.77
2019-05-17T10:07:10.225Z,31.82
2019-05-17T10:09:40.119Z,31.40
2019-05-17T10:12:09.731Z,32.15
2019-05-17T10:14:39.177Z,32.40
2019-05-17T10:17:09.842Z,31.17
2019-05-17T10:19:40.208Z,32.00
2019-05-17T10:22:10.343Z,31.82
2019-05-17T10:24:42.363Z,28.92
2019-05-17T10:27:30.440Z,26.25
2019-05-17T10:29:59.786Z,25.88
2019-05-17T10:32:30.986Z,28.25
2019-05-17T10:35:00.504Z,26.23
2019-05-17T10:37:30.366Z,28.32
2019-05-17T10:39:59.890Z,26.77
2019-05-17T10:42:30.650Z,25.40
2019-05-17T10:45:01.253Z,25.35
2019-05-17T10:47:30.719Z,24.87
2019-05-17T10:50:00.090Z,26.17
2019-05-17T10:52:30.089Z,25.70
2019-05-17T10:54:59.917Z,25.23
2019-05-17T10:57:30.254Z,26.45
2019-05-17T11:00:00.914Z,22.82
2019-05-17T11:02:31.926Z,22.37
2019-05-17T11:05:01.323Z,25.48
2019-05-17T11:07:30.968Z,28.12
2019-05-17T11:10:00.767Z,24.30
2019-05-17T11:12:30.259Z,28.32
2019-05-17T11:15:10.178Z,27.00
2019-05-17T11:17:31.296Z,27.85
2019-05-17T11:20:00.666Z,28.30
2019-05-17T11:22:30.070Z,25.45
2019-05-17T11:24:59.463Z,25.82
2019-05-17T11:27:28.848Z,26.12
2019-05-17T11:29:58.235Z,26.23
2019-05-17T11:32:27.624Z,26.68
2019-05-17T11:34:56.986Z,27.30
2019-05-17T11:37:26.395Z,25.72
2019-05-17T11:42:25.447Z,24.70
2019-05-17T11:44:54.849Z,24.60
2019-05-17T11:47:24.240Z,26.65
2019-05-17T11:52:23.308Z,25.75
2019-05-17T11:54:52.697Z,24.45
2019-05-17T11:57:22.090Z,27.37
2019-05-17T11:59:51.478Z,27.30
2019-05-17T12:02:21.621Z,26.15
2019-05-17T12:04:51.231Z,25.37
2019-05-17T12:07:20.619Z,25.90
2019-05-17T12:09:49.993Z,24.32
2019-05-17T12:12:19.379Z,24.50
2019-05-17T12:14:48.775Z,24.43
2019-05-17T12:17:18.149Z,24.05
2019-05-17T12:19:47.531Z,25.25
2019-05-17T12:22:16.888Z,22.67
2019-05-17T12:24:46.283Z,22.70
2019-05-17T12:27:15.668Z,22.00
2019-05-17T12:29:45.068Z,21.45
2019-05-17T12:32:17.124Z,21.80
2019-05-17T12:34:45.483Z,20.60
2019-05-17T12:37:14.893Z,22.65
2019-05-17T12:39:44.286Z,21.25
2019-05-17T12:42:13.692Z,21.85
2019-05-17T12:44:43.072Z,23.77
2019-05-17T12:47:12.459Z,20.30
2019-05-17T12:49:41.821Z,21.48
2019-05-17T12:52:11.214Z,20.80
2019-05-17T12:54:40.613Z,20.70
2019-05-17T12:59:39.668Z,20.23
2019-05-17T13:02:12.124Z,22.22
2019-05-17T13:04:40.048Z,19.80
2019-05-17T13:07:09.436Z,21.75
2019-05-17T13:09:38.827Z,22.25
2019-05-17T13:12:08.201Z,22.22
2019-05-17T13:14:37.592Z,22.50
2019-05-17T13:17:06.979Z,22.73
2019-05-17T13:19:36.351Z,22.55
2019-05-17T13:22:05.818Z,22.37
2019-05-17T13:24:35.270Z,23.30
2019-05-17T13:27:04.652Z,20.48
2019-05-17T13:29:34.054Z,20.88
2019-05-17T13:34:33.116Z,18.80
2019-05-17T13:37:02.505Z,20.45
2019-05-17T13:39:31.867Z,21.00
2019-05-17T13:42:01.327Z,20.20
2019-05-17T13:44:30.728Z,18.15
2019-05-17T13:47:00.150Z,20.00
2019-05-17T13:49:29.552Z,19.90
2019-05-17T13:54:28.628Z,22.48
2019-05-17T13:56:58.018Z,22.00
2019-05-17T13:59:27.397Z,23.52
2019-05-17T14:01:56.849Z,21.95
2019-05-17T14:06:55.903Z,23.85
2019-05-17T14:09:25.298Z,23.90
2019-05-17T14:11:54.693Z,23.62
2019-05-17T14:14:24.058Z,23.20
2019-05-17T14:16:53.539Z,22.87
2019-05-17T14:19:24.006Z,22.62
2019-05-17T14:21:53.426Z,24.43
2019-05-17T14:24:22.879Z,21.25
2019-05-17T14:26:52.406Z,20.92
2019-05-17T14:29:22.020Z,21.85
2019-05-17T14:31:51.403Z,22.50
2019-05-17T14:34:20.780Z,21.75
2019-05-17T14:36:50.171Z,23.75
2019-05-17T14:39:19.556Z,20.45
2019-05-17T14:41:48.918Z,21.57
2019-05-17T14:44:18.318Z,22.50
2019-05-17T14:46:47.712Z,25.85
2019-05-17T14:49:17.101Z,25.48
2019-05-17T14:54:35.595Z,23.60
2019-05-17T14:57:04.985Z,23.60
2019-05-17T14:59:34.350Z,25.30
2019-05-17T15:02:03.769Z,25.57
2019-05-17T15:04:33.216Z,24.30
2019-05-17T15:07:02.584Z,23.80
2019-05-17T15:09:32.087Z,23.25
2019-05-17T15:12:01.717Z,22.82
2019-05-17T15:14:31.075Z,21.55
2019-05-17T15:17:00.471Z,19.87
2019-05-17T15:19:29.862Z,19.02
2019-05-17T15:21:59.223Z,20.15
2019-05-17T15:24:28.755Z,20.02
2019-05-17T15:27:05.434Z,22.10
2019-05-17T15:29:29.138Z,21.27
2019-05-17T15:31:58.603Z,21.07
2019-05-17T15:34:27.995Z,20.05
2019-05-17T15:36:57.365Z,19.60
2019-05-17T15:39:27.002Z,18.92
2019-05-17T15:41:56.490Z,18.85
2019-05-17T15:44:27.050Z,19.17
2019-05-17T15:46:56.710Z,18.95
2019-05-17T15:49:26.103Z,19.95
2019-05-17T15:51:55.493Z,19.48
2019-05-17T15:54:24.869Z,18.85
2019-05-17T15:56:54.323Z,18.10
2019-05-17T15:59:23.720Z,19.48
2019-05-17T16:01:53.114Z,18.50
2019-05-17T16:04:22.576Z,19.07
2019-05-17T16:06:51.942Z,19.57
2019-05-17T16:09:21.356Z,19.48
2019-05-17T16:11:50.752Z,18.20
2019-05-17T16:14:20.107Z,18.60
2019-05-17T16:16:49.500Z,19.87
2019-05-17T16:19:30.995Z,19.50
2019-05-17T16:22:00.382Z,19.55
2019-05-17T16:24:29.845Z,19.48
2019-05-17T16:26:59.321Z,20.00
2019-05-17T16:29:28.717Z,19.92
2019-05-17T16:31:58.105Z,19.70
2019-05-17T16:34:27.571Z,19.02
2019-05-17T16:36:56.960Z,19.25
2019-05-17T16:39:26.326Z,19.25
2019-05-17T16:41:55.711Z,18.50
2019-05-17T16:44:25.099Z,19.02
2019-05-17T16:46:54.467Z,19.20
2019-05-17T16:49:24.013Z,19.73
2019-05-17T16:51:53.380Z,20.67
2019-05-17T16:54:22.839Z,20.62
2019-05-17T16:56:52.372Z,20.23
2019-05-17T16:59:21.810Z,20.23
2019-05-17T17:01:52.246Z,21.13
2019-05-17T17:04:22.662Z,23.75
2019-05-17T17:09:21.632Z,18.35
2019-05-17T17:11:51.102Z,19.52
2019-05-17T17:14:20.473Z,20.23
2019-05-17T17:16:49.899Z,19.25
2019-05-17T17:19:19.279Z,18.25
2019-05-17T17:22:00.663Z,19.67
2019-05-17T17:24:30.057Z,19.52
2019-05-17T17:26:59.490Z,20.55
2019-05-17T17:29:28.914Z,20.85
2019-05-17T17:31:58.299Z,21.00
2019-05-17T17:34:27.703Z,20.82
2019-05-17T17:36:57.074Z,20.48
2019-05-17T17:39:26.443Z,19.02
2019-05-17T17:41:55.837Z,19.32
2019-05-17T17:44:25.223Z,18.52
2019-05-17T17:46:54.586Z,18.77
2019-05-17T17:49:23.973Z,18.15
2019-05-17T17:51:53.340Z,18.30
2019-05-17T17:54:22.731Z,17.87
2019-05-17T17:56:52.211Z,17.07
2019-05-17T17:59:21.653Z,19.03
2019-05-17T18:01:51.122Z,18.82
2019-05-17T18:04:20.723Z,18.33
2019-05-17T18:06:50.184Z,19.50
2019-05-17T18:09:19.584Z,16.12
2019-05-17T18:11:48.957Z,18.45
2019-05-17T18:14:18.353Z,19.67
2019-05-17T18:16:47.812Z,16.97
2019-05-17T18:21:46.886Z,19.40
2019-05-17T18:24:16.350Z,17.35
2019-05-17T18:26:45.727Z,23.60
2019-05-17T18:29:15.380Z,23.60
2019-05-17T18:31:44.807Z,22.85
2019-05-17T18:34:14.771Z,24.27
2019-05-17T18:36:44.475Z,24.77
2019-05-17T18:39:13.871Z,26.05
2019-05-17T18:41:43.313Z,26.60
2019-05-17T18:44:33.471Z,28.30
2019-05-17T18:47:05.411Z,32.70
2019-05-17T18:49:37.970Z,35.25
2019-05-17T18:52:19.143Z,33.00
2019-05-17T18:54:45.870Z,36.85
2019-05-17T18:57:15.469Z,34.83
2019-05-17T18:59:46.585Z,31.40
2019-05-17T19:02:15.981Z,29.17
2019-05-17T19:04:45.471Z,31.35
2019-05-17T19:07:14.916Z,30.62
2019-05-17T19:09:44.322Z,34.35
2019-05-17T19:12:13.940Z,37.85
2019-05-17T19:14:44.365Z,36.40
2019-05-17T19:17:13.775Z,36.25
2019-05-17T19:19:43.291Z,37.35
2019-05-17T19:22:12.673Z,39.03
2019-05-17T19:24:42.291Z,34.43
2019-05-17T19:27:11.665Z,41.17
2019-05-17T19:29:43.889Z,36.63
2019-05-17T19:32:14.450Z,44.00
2019-05-17T19:34:45.416Z,42.73
2019-05-17T19:37:15.981Z,39.63
2019-05-17T19:39:45.486Z,39.08
2019-05-17T19:42:15.081Z,42.35
2019-05-17T19:44:57.968Z,39.57
2019-05-17T19:47:15.850Z,40.08
2019-05-17T19:49:46.437Z,45.17
2019-05-17T19:52:15.957Z,41.20
2019-05-17T19:54:45.346Z,42.15
2019-05-17T19:57:14.720Z,38.95
2019-05-17T19:59:44.132Z,36.50
2019-05-17T20:02:13.749Z,36.33
2019-05-17T20:04:43.443Z,37.17
2019-05-17T20:07:12.931Z,36.00
2019-05-17T20:09:42.325Z,35.52
2019-05-17T20:12:11.804Z,36.85
2019-05-17T20:14:41.455Z,32.08
2019-05-17T20:17:12.457Z,35.70
2019-05-17T20:19:42.088Z,34.38
2019-05-17T20:22:11.835Z,34.27
2019-05-17T20:24:41.321Z,31.65
2019-05-17T20:27:10.774Z,31.33
2019-05-17T20:29:40.146Z,32.08
2019-05-17T20:32:09.564Z,32.60
2019-05-17T20:34:39.044Z,48.80
2019-05-17T20:37:09.616Z,46.55
2019-05-17T20:39:39.158Z,54.65
2019-05-17T20:42:08.687Z,48.17
2019-05-17T20:44:38.150Z,36.68
2019-05-17T20:47:07.580Z,38.65
2019-05-17T20:49:37.021Z,40.28
2019-05-17T20:52:06.482Z,35.90
2019-05-17T20:54:36.304Z,35.88
2019-05-17T20:57:05.787Z,35.17
2019-05-17T20:59:35.257Z,35.55
2019-05-17T21:02:04.702Z,39.95
2019-05-17T21:04:34.142Z,36.85
2019-05-17T21:07:03.535Z,36.13
2019-05-17T21:09:32.923Z,41.30
2019-05-17T21:12:02.354Z,41.45
2019-05-17T21:14:31.810Z,34.60
2019-05-17T21:17:01.207Z,35.60
2019-05-17T21:19:30.569Z,39.08
2019-05-17T21:21:59.961Z,43.68
2019-05-17T21:24:29.358Z,41.90
2019-05-17T21:26:58.717Z,41.58
2019-05-17T21:29:28.119Z,44.13
2019-05-17T21:31:58.167Z,43.25
2019-05-17T21:34:27.652Z,36.93
2019-05-17T21:36:57.056Z,36.40
2019-05-17T21:39:26.453Z,36.35
2019-05-17T21:41:55.818Z,33.63
2019-05-17T21:44:25.208Z,36.05
2019-05-17T21:47:04.414Z,34.80
2019-05-17T21:49:25.614Z,35.73
2019-05-17T21:51:55.005Z,31.93
2019-05-17T21:54:24.376Z,34.40
2019-05-17T21:56:53.785Z,35.45
2019-05-17T21:59:23.162Z,36.93
2019-05-17T22:01:53.034Z,34.67
2019-05-17T22:04:22.506Z,35.35
2019-05-17T22:06:51.859Z,35.73
2019-05-17T22:09:21.391Z,36.42
2019-05-17T22:11:52.485Z,37.87
2019-05-17T22:14:21.852Z,36.20
2019-05-17T22:16:51.311Z,33.70
2019-05-17T22:19:20.680Z,39.05
2019-05-17T22:21:50.059Z,36.70
2019-05-17T22:24:19.452Z,36.13
2019-05-17T22:26:48.843Z,33.53
2019-05-17T22:29:18.231Z,35.13
2019-05-17T22:31:47.598Z,35.20
2019-05-17T22:34:16.987Z,33.65
2019-05-17T22:36:46.383Z,36.15
2019-05-17T22:39:15.943Z,34.63
2019-05-17T22:41:45.445Z,37.13
2019-05-17T22:44:14.806Z,35.92
2019-05-17T22:46:44.210Z,35.83
2019-05-17T22:49:13.598Z,35.28
2019-05-17T22:54:12.821Z,33.58
2019-05-17T22:56:42.225Z,34.80
2019-05-17T22:59:11.583Z,35.35
2019-05-17T23:01:41.041Z,36.45
2019-05-17T23:04:10.517Z,37.70
2019-05-17T23:06:39.945Z,39.23
2019-05-17T23:09:09.340Z,41.80
2019-05-17T23:11:38.730Z,43.05
2019-05-17T23:14:08.103Z,40.05
2019-05-17T23:16:50.494Z,41.48
2019-05-17T23:19:08.967Z,45.73
2019-05-17T23:21:38.768Z,40.75
2019-05-17T23:24:20.290Z,40.85
2019-05-17T23:26:49.674Z,41.37
2019-05-17T23:29:19.034Z,39.10
2019-05-17T23:31:48.420Z,42.93
2019-05-17T23:34:17.798Z,40.25
2019-05-17T23:36:47.200Z,42.08
2019-05-17T23:41:46.256Z,40.88
2019-05-17T23:44:15.743Z,35.60
2019-05-17T23:46:45.139Z,42.55
2019-05-17T23:49:14.574Z,45.30
2019-05-17T23:51:43.971Z,43.87
2019-05-17T23:54:13.375Z,42.10
2019-05-17T23:56:42.742Z,43.92
2019-05-17T23:59:12.139Z,41.70
